createdAt,value
2023-05-23T00:02:08.031Z,17.17
2023-05-23T00:04:36.697Z,17.40
2023-05-23T00:07:04.159Z,20.23
2023-05-23T00:09:31.518Z,20.23
2023-05-23T00:11:59.176Z,21.00
2023-05-23T00:14:26.746Z,22.45
2023-05-23T00:16:55.016Z,18.42
2023-05-23T00:19:23.714Z,23.02
2023-05-23T00:21:53.687Z,24.33
2023-05-23T00:24:21.932Z,22.27
2023-05-23T00:26:49.278Z,25.10
2023-05-23T00:29:17.475Z,22.48
2023-05-23T00:31:46.264Z,23.40
2023-05-23T00:34:13.594Z,25.38
2023-05-23T00:36:43.525Z,24.73
2023-05-23T00:39:18.830Z,21.35
2023-05-23T00:41:47.708Z,25.42
2023-05-23T00:44:16.710Z,24.65
2023-05-23T00:46:46.471Z,25.98
2023-05-23T00:49:14.262Z,23.70
2023-05-23T00:51:43.923Z,24.88
2023-05-23T00:54:11.494Z,25.38
2023-05-23T00:56:39.585Z,28.05
2023-05-23T00:59:07.534Z,27.23
2023-05-23T01:01:36.852Z,26.95
2023-05-23T01:04:04.580Z,28.13
2023-05-23T01:06:33.638Z,29.75
2023-05-23T01:09:02.953Z,27.05
2023-05-23T01:11:33.556Z,27.35
2023-05-23T01:14:05.179Z,30.65
2023-05-23T01:16:36.127Z,23.10
2023-05-23T01:19:10.360Z,29.42
2023-05-23T01:21:39.121Z,28.02
2023-05-23T01:24:22.594Z,27.83
2023-05-23T01:27:02.143Z,23.85
2023-05-23T01:29:33.528Z,27.67
2023-05-23T01:32:01.768Z,28.10
2023-05-23T01:34:29.886Z,23.27
2023-05-23T01:36:57.259Z,22.17
2023-05-23T01:39:24.923Z,20.20
2023-05-23T01:41:52.680Z,18.55
2023-05-23T01:44:21.911Z,17.00
2023-05-23T01:46:50.586Z,15.05
2023-05-23T01:49:19.159Z,11.27
2023-05-23T01:51:46.765Z,9.95
2023-05-23T01:54:16.778Z,10.80
2023-05-23T01:56:44.228Z,9.43
2023-05-23T01:59:11.632Z,7.57
2023-05-23T02:01:39.536Z,9.13
2023-05-23T02:04:08.472Z,8.27
2023-05-23T02:06:35.798Z,9.15
2023-05-23T02:09:03.172Z,8.85
2023-05-23T02:11:30.524Z,8.55
2023-05-23T02:13:57.878Z,8.35
2023-05-23T02:16:26.319Z,9.43
2023-05-23T02:18:56.305Z,9.38
2023-05-23T02:21:25.322Z,9.35
2023-05-23T02:23:52.659Z,10.20
2023-05-23T02:26:20.049Z,7.63
2023-05-23T02:28:47.416Z,7.53
2023-05-23T02:31:14.817Z,7.63
2023-05-23T02:33:42.219Z,7.10
2023-05-23T02:36:09.648Z,8.88
2023-05-23T02:38:38.285Z,10.00
2023-05-23T02:41:05.741Z,9.05
2023-05-23T02:43:33.067Z,10.20
2023-05-23T02:46:00.394Z,9.30
2023-05-23T02:48:27.878Z,10.75
2023-05-23T02:50:55.487Z,10.18
2023-05-23T02:53:23.122Z,13.23
2023-05-23T02:55:51.796Z,10.90
2023-05-23T02:58:19.832Z,10.35
2023-05-23T03:00:48.216Z,15.07
2023-05-23T03:03:16.806Z,14.30
2023-05-23T03:05:44.364Z,13.63
2023-05-23T03:08:11.976Z,12.52
2023-05-23T03:10:39.294Z,12.70
2023-05-23T03:13:08.272Z,13.52
2023-05-23T03:15:35.635Z,14.57
2023-05-23T03:18:03.028Z,14.15
2023-05-23T03:20:30.389Z,17.70
2023-05-23T03:22:57.707Z,12.63
2023-05-23T03:25:25.908Z,16.23
2023-05-23T03:27:53.200Z,12.10
2023-05-23T03:30:21.831Z,14.00
2023-05-23T03:32:49.732Z,15.93
2023-05-23T03:35:17.228Z,18.95
2023-05-23T03:37:44.524Z,15.90
2023-05-23T03:40:11.916Z,16.42
2023-05-23T03:42:39.610Z,14.57
2023-05-23T03:45:07.511Z,18.50
2023-05-23T03:47:36.294Z,14.85
2023-05-23T03:50:03.771Z,14.95
2023-05-23T03:52:31.068Z,14.68
2023-05-23T03:54:58.399Z,17.15
2023-05-23T03:57:25.674Z,14.05
2023-05-23T03:59:52.995Z,12.05
2023-05-23T04:02:20.497Z,13.75
2023-05-23T04:04:49.184Z,9.85
2023-05-23T04:07:16.569Z,14.63
2023-05-23T04:09:44.248Z,13.45
2023-05-23T04:12:11.878Z,17.02
2023-05-23T04:14:39.336Z,14.82
2023-05-23T04:17:08.913Z,15.05
2023-05-23T04:19:36.489Z,12.63
2023-05-23T04:22:05.296Z,10.45
2023-05-23T04:24:32.623Z,10.60
2023-05-23T04:27:00.630Z,11.90
2023-05-23T04:29:31.449Z,12.93
2023-05-23T04:31:58.920Z,14.40
2023-05-23T04:34:27.009Z,14.10
2023-05-23T04:36:54.866Z,17.23
2023-05-23T04:39:23.725Z,13.30
2023-05-23T04:41:51.272Z,16.48
2023-05-23T04:44:18.625Z,19.20
2023-05-23T04:46:46.115Z,16.33
2023-05-23T04:49:14.337Z,15.15
2023-05-23T04:51:41.669Z,16.83
2023-05-23T04:54:09.085Z,21.38
2023-05-23T04:56:38.369Z,18.38
2023-05-23T04:59:05.879Z,15.95
2023-05-23T05:01:34.355Z,17.13
2023-05-23T05:04:01.834Z,12.93
2023-05-23T05:06:29.186Z,12.35
2023-05-23T05:08:56.530Z,17.70
2023-05-23T05:11:23.870Z,16.55
2023-05-23T05:13:52.564Z,18.08
2023-05-23T05:16:19.963Z,18.83
2023-05-23T05:18:47.316Z,20.00
2023-05-23T05:21:14.711Z,17.00
2023-05-23T05:23:42.028Z,17.05
2023-05-23T05:26:09.396Z,14.95
2023-05-23T05:28:36.779Z,13.55
2023-05-23T05:31:05.868Z,16.08
2023-05-23T05:33:36.083Z,16.60
2023-05-23T05:36:03.977Z,18.67
2023-05-23T05:38:31.357Z,20.02
2023-05-23T05:40:58.742Z,20.70
2023-05-23T05:43:26.814Z,20.40
2023-05-23T05:45:54.264Z,19.33
2023-05-23T05:48:24.812Z,22.73
2023-05-23T05:50:52.189Z,22.30
2023-05-23T05:53:19.554Z,21.35
2023-05-23T05:55:46.898Z,25.33
2023-05-23T05:58:14.261Z,20.98
2023-05-23T06:00:43.401Z,14.98
2023-05-23T06:03:10.930Z,19.08
2023-05-23T06:05:40.322Z,20.83
2023-05-23T06:08:07.692Z,18.80
2023-05-23T06:10:35.102Z,17.58
2023-05-23T06:13:02.486Z,16.33
2023-05-23T06:15:29.814Z,19.02
2023-05-23T06:17:57.160Z,17.83
2023-05-23T06:20:24.509Z,19.40
2023-05-23T06:22:53.351Z,16.60
2023-05-23T06:25:20.886Z,15.90
2023-05-23T06:27:48.213Z,14.43
2023-05-23T06:30:15.993Z,18.17
2023-05-23T06:32:43.380Z,17.42
2023-05-23T06:35:10.846Z,17.52
2023-05-23T06:37:40.067Z,15.40
2023-05-23T06:40:09.349Z,14.23
2023-05-23T06:42:36.686Z,20.42
2023-05-23T06:45:04.190Z,19.17
2023-05-23T06:47:31.547Z,11.18
2023-05-23T06:49:58.915Z,14.63
2023-05-23T06:52:26.288Z,14.80
2023-05-23T06:54:53.618Z,14.57
2023-05-23T06:57:22.351Z,13.93
2023-05-23T06:59:49.688Z,13.88
2023-05-23T07:02:17.091Z,16.23
2023-05-23T07:04:44.449Z,14.57
2023-05-23T07:07:11.832Z,13.32
2023-05-23T07:09:39.381Z,16.73
2023-05-23T07:12:07.029Z,18.10
2023-05-23T07:14:38.057Z,16.80
2023-05-23T07:17:05.637Z,13.88
2023-05-23T07:19:33.078Z,14.60
2023-05-23T07:22:00.474Z,13.65
2023-05-23T07:24:27.876Z,16.30
2023-05-23T07:26:55.359Z,12.77
2023-05-23T07:29:22.676Z,11.90
2023-05-23T07:31:51.352Z,11.00
2023-05-23T07:34:18.698Z,9.90
2023-05-23T07:36:46.074Z,11.75
2023-05-23T07:39:14.611Z,14.60
2023-05-23T07:41:41.986Z,11.45
2023-05-23T07:44:09.543Z,11.02
2023-05-23T07:46:36.947Z,10.93
2023-05-23T07:49:06.077Z,11.52
2023-05-23T07:51:33.565Z,15.05
2023-05-23T07:54:02.665Z,12.73
2023-05-23T07:56:30.040Z,14.32
2023-05-23T07:58:57.376Z,9.70
2023-05-23T08:01:24.880Z,10.20
2023-05-23T08:03:52.233Z,12.75
2023-05-23T08:06:21.166Z,11.85
2023-05-23T08:08:48.462Z,14.93
2023-05-23T08:11:15.865Z,12.88
2023-05-23T08:13:43.209Z,15.68
2023-05-23T08:16:10.622Z,19.85
2023-05-23T08:18:38.167Z,15.13
2023-05-23T08:21:05.541Z,15.15
2023-05-23T08:23:34.212Z,17.80
2023-05-23T08:26:01.555Z,25.08
2023-05-23T08:28:28.914Z,20.20
2023-05-23T08:30:58.196Z,20.80
2023-05-23T08:33:25.546Z,15.32
2023-05-23T08:35:52.898Z,20.80
2023-05-23T08:38:21.919Z,20.85
2023-05-23T08:40:51.765Z,20.90
2023-05-23T08:43:19.300Z,20.40
2023-05-23T08:45:46.915Z,18.15
2023-05-23T08:48:14.982Z,21.45
2023-05-23T08:50:43.932Z,20.70
2023-05-23T08:53:11.669Z,27.83
2023-05-23T08:55:39.114Z,25.65
2023-05-23T08:58:07.916Z,22.75
2023-05-23T09:00:35.635Z,20.25
2023-05-23T09:03:03.330Z,18.65
2023-05-23T09:05:30.801Z,24.83
2023-05-23T09:07:58.198Z,24.27
2023-05-23T09:10:25.572Z,17.42
2023-05-23T09:12:52.951Z,22.23
2023-05-23T09:15:22.314Z,21.25
2023-05-23T09:17:50.417Z,19.25
2023-05-23T09:20:18.485Z,24.15
2023-05-23T09:22:46.992Z,18.55
2023-05-23T09:25:14.694Z,21.23
2023-05-23T09:27:42.182Z,17.42
2023-05-23T09:30:10.864Z,18.48
2023-05-23T09:32:39.566Z,17.77
2023-05-23T09:35:08.236Z,24.45
2023-05-23T09:37:36.551Z,26.27
2023-05-23T09:40:07.360Z,21.45
2023-05-23T09:42:35.063Z,22.63
2023-05-23T09:45:04.630Z,22.20
2023-05-23T09:47:32.637Z,22.70
2023-05-23T09:50:01.377Z,19.33
2023-05-23T09:52:28.713Z,21.05
2023-05-23T09:54:56.325Z,18.15
2023-05-23T09:57:25.007Z,19.52
2023-05-23T09:59:54.230Z,20.40
2023-05-23T10:02:31.134Z,16.27
2023-05-23T10:04:58.819Z,16.30
2023-05-23T10:07:28.141Z,16.65
2023-05-23T10:09:58.214Z,16.00
2023-05-23T10:12:44.697Z,16.63
2023-05-23T10:15:14.140Z,11.73
2023-05-23T10:17:47.239Z,11.38
2023-05-23T10:20:16.799Z,17.83
2023-05-23T10:22:45.778Z,13.48
2023-05-23T10:25:13.392Z,14.57
2023-05-23T10:27:40.831Z,12.63
2023-05-23T10:30:08.734Z,12.93
2023-05-23T10:32:36.834Z,15.82
2023-05-23T10:35:08.749Z,12.75
2023-05-23T10:37:39.772Z,12.95
2023-05-23T10:40:12.908Z,16.70
2023-05-23T10:42:46.266Z,14.82
2023-05-23T10:45:17.635Z,14.13
2023-05-23T10:47:45.130Z,11.20
2023-05-23T10:50:16.111Z,12.77
2023-05-23T10:52:44.951Z,8.52
2023-05-23T10:55:17.725Z,10.48
2023-05-23T10:57:45.707Z,11.23
2023-05-23T11:00:14.337Z,11.85
2023-05-23T11:02:47.812Z,8.77
2023-05-23T11:05:22.455Z,10.82
2023-05-23T11:08:04.701Z,10.52
2023-05-23T11:10:33.523Z,11.77
2023-05-23T11:13:07.025Z,8.68
2023-05-23T11:15:42.646Z,7.40
2023-05-23T11:18:10.071Z,11.30
2023-05-23T11:20:38.170Z,10.38
2023-05-23T11:23:08.631Z,10.40
2023-05-23T11:25:44.483Z,9.75
2023-05-23T11:28:12.672Z,6.13
2023-05-23T11:30:40.426Z,7.13
2023-05-23T11:33:09.425Z,7.75
2023-05-23T11:35:37.042Z,8.15
2023-05-23T11:38:05.461Z,6.95
2023-05-23T11:40:33.967Z,7.53
2023-05-23T11:43:03.791Z,8.52
2023-05-23T11:45:32.159Z,11.00
2023-05-23T11:47:59.722Z,7.45
2023-05-23T11:50:27.267Z,12.00
2023-05-23T11:52:55.668Z,10.38
2023-05-23T11:55:23.365Z,8.88
2023-05-23T11:57:51.600Z,11.65
2023-05-23T12:00:20.889Z,11.60
2023-05-23T12:02:49.019Z,10.25
2023-05-23T12:05:16.765Z,11.63
2023-05-23T12:07:46.350Z,12.10
2023-05-23T12:10:14.982Z,10.55
2023-05-23T12:12:43.005Z,10.02
2023-05-23T12:15:11.453Z,12.18
2023-05-23T12:17:40.298Z,10.68
2023-05-23T12:20:08.416Z,12.90
2023-05-23T12:22:36.218Z,9.90
2023-05-23T12:25:04.881Z,9.43
2023-05-23T12:27:33.461Z,8.13
2023-05-23T12:30:08.629Z,10.05
2023-05-23T12:32:36.541Z,14.40
2023-05-23T12:35:06.666Z,7.90
2023-05-23T12:37:34.166Z,11.60
2023-05-23T12:40:10.447Z,8.70
2023-05-23T12:42:44.911Z,10.20
2023-05-23T12:45:14.538Z,11.27
2023-05-23T12:47:41.879Z,7.10
2023-05-23T12:50:20.021Z,7.45
2023-05-23T12:53:16.178Z,9.65
2023-05-23T12:55:56.415Z,11.73
2023-05-23T12:58:23.741Z,11.35
2023-05-23T13:00:51.225Z,7.38
2023-05-23T13:03:25.464Z,8.50
2023-05-23T13:06:01.743Z,8.43
2023-05-23T13:08:35.453Z,8.52
2023-05-23T13:11:02.855Z,7.40
2023-05-23T13:13:30.480Z,11.45
2023-05-23T13:16:04.447Z,12.23
2023-05-23T13:18:38.810Z,7.53
2023-05-23T13:21:07.612Z,10.65
2023-05-23T13:23:35.977Z,10.55
2023-05-23T13:26:03.498Z,13.88
2023-05-23T13:28:30.870Z,9.32
2023-05-23T13:30:58.304Z,11.25
2023-05-23T13:33:25.764Z,7.80
2023-05-23T13:35:54.150Z,8.60
2023-05-23T13:38:26.068Z,7.80
2023-05-23T13:40:54.538Z,10.05
2023-05-23T13:43:21.913Z,9.43
2023-05-23T13:45:49.254Z,11.02
2023-05-23T13:48:16.697Z,14.23
2023-05-23T13:50:44.566Z,10.57
2023-05-23T13:53:16.475Z,12.25
2023-05-23T13:55:45.776Z,10.60
2023-05-23T13:58:13.382Z,10.73
2023-05-23T14:00:41.120Z,17.35
2023-05-23T14:03:09.392Z,11.00
2023-05-23T14:05:37.598Z,10.75
2023-05-23T14:08:05.322Z,8.75
2023-05-23T14:10:33.194Z,11.07
2023-05-23T14:13:02.018Z,8.65
2023-05-23T14:15:29.842Z,11.35
2023-05-23T14:17:58.465Z,11.68
2023-05-23T14:20:26.089Z,11.60
2023-05-23T14:22:53.438Z,12.80
2023-05-23T14:25:20.827Z,12.77
2023-05-23T14:27:48.189Z,11.10
2023-05-23T14:30:17.118Z,13.18
2023-05-23T14:32:44.589Z,9.63
2023-05-23T14:35:12.129Z,13.00
2023-05-23T14:37:39.779Z,13.93
2023-05-23T14:40:09.810Z,10.38
2023-05-23T14:42:37.671Z,11.63
2023-05-23T14:45:05.530Z,17.63
2023-05-23T14:47:34.697Z,10.75
2023-05-23T14:50:02.166Z,11.95
2023-05-23T14:52:29.622Z,12.65
2023-05-23T14:54:57.041Z,11.77
2023-05-23T14:57:24.648Z,14.10
2023-05-23T14:59:52.019Z,11.95
2023-05-23T15:02:19.894Z,12.93
2023-05-23T15:04:48.717Z,12.45
2023-05-23T15:07:18.168Z,12.82
2023-05-23T15:09:45.742Z,14.25
2023-05-23T15:12:15.075Z,15.98
2023-05-23T15:14:43.302Z,10.32
2023-05-23T15:17:12.546Z,13.00
2023-05-23T15:19:42.682Z,11.82
2023-05-23T15:22:25.744Z,11.55
2023-05-23T15:24:59.603Z,12.75
2023-05-23T15:27:26.986Z,11.80
2023-05-23T15:29:54.396Z,8.45
2023-05-23T15:32:21.838Z,11.20
2023-05-23T15:34:49.381Z,9.15
2023-05-23T15:37:18.253Z,7.57
2023-05-23T15:39:45.596Z,10.70
2023-05-23T15:42:12.958Z,9.55
2023-05-23T15:44:40.585Z,13.95
2023-05-23T15:47:07.987Z,10.00
2023-05-23T15:49:35.506Z,9.18
2023-05-23T15:52:02.865Z,10.75
2023-05-23T15:54:31.565Z,12.80
2023-05-23T15:56:58.943Z,12.32
2023-05-23T15:59:26.279Z,9.70
2023-05-23T16:01:53.695Z,8.73
2023-05-23T16:04:21.124Z,8.95
2023-05-23T16:06:48.545Z,8.90
2023-05-23T16:09:15.967Z,11.90
2023-05-23T16:11:44.618Z,10.98
2023-05-23T16:14:12.033Z,8.50
2023-05-23T16:16:39.473Z,14.30
2023-05-23T16:19:06.871Z,11.55
2023-05-23T16:21:34.256Z,15.43
2023-05-23T16:24:01.632Z,12.23
2023-05-23T16:26:29.082Z,9.70
2023-05-23T16:28:57.753Z,10.55
2023-05-23T16:31:26.963Z,11.38
2023-05-23T16:33:54.361Z,9.52
2023-05-23T16:36:22.000Z,9.65
2023-05-23T16:38:49.363Z,11.13
2023-05-23T16:41:16.739Z,13.00
2023-05-23T16:43:44.111Z,11.85
2023-05-23T16:46:12.791Z,14.30
2023-05-23T16:48:40.148Z,11.00
2023-05-23T16:51:07.540Z,10.75
2023-05-23T16:53:34.938Z,10.65
2023-05-23T16:56:02.357Z,8.82
2023-05-23T16:58:29.741Z,11.85
2023-05-23T17:00:57.026Z,11.88
2023-05-23T17:03:25.797Z,12.27
2023-05-23T17:05:53.192Z,10.05
2023-05-23T17:08:20.537Z,8.63
2023-05-23T17:10:47.965Z,12.43
2023-05-23T17:13:15.464Z,10.48
2023-05-23T17:15:43.093Z,9.02
2023-05-23T17:18:10.770Z,16.08
2023-05-23T17:20:39.522Z,13.55
2023-05-23T17:23:06.970Z,15.32
2023-05-23T17:25:34.321Z,18.98
2023-05-23T17:31:33.036Z,11.63
2023-05-23T17:34:00.429Z,10.35
2023-05-23T17:36:29.157Z,13.27
2023-05-23T17:38:56.804Z,11.68
2023-05-23T17:41:24.152Z,11.82
2023-05-23T17:43:51.524Z,11.40
2023-05-23T17:46:19.069Z,13.38
2023-05-23T17:48:48.265Z,14.40
2023-05-23T17:51:16.144Z,11.40
2023-05-23T17:53:44.972Z,15.02
2023-05-23T17:56:12.319Z,11.77
2023-05-23T17:58:42.477Z,10.45
2023-05-23T18:01:13.327Z,10.15
2023-05-23T18:03:40.798Z,10.48
2023-05-23T18:06:08.180Z,7.97
2023-05-23T18:08:35.567Z,13.15
2023-05-23T18:11:04.275Z,17.05
2023-05-23T18:13:31.647Z,6.60
2023-05-23T18:15:58.966Z,9.88
2023-05-23T18:18:26.318Z,10.00
2023-05-23T18:20:53.693Z,11.05
2023-05-23T18:23:22.271Z,11.82
2023-05-23T18:25:49.673Z,10.80
2023-05-23T18:28:18.371Z,10.20
2023-05-23T18:30:45.802Z,12.13
2023-05-23T18:33:13.301Z,14.43
2023-05-23T18:35:40.987Z,10.50
2023-05-23T18:38:08.530Z,16.83
2023-05-23T18:40:36.078Z,10.05
2023-05-23T18:43:03.446Z,12.98
2023-05-23T18:45:32.165Z,15.73
2023-05-23T18:47:59.650Z,15.02
2023-05-23T18:50:27.112Z,10.95
2023-05-23T18:52:54.446Z,13.38
2023-05-23T18:55:21.917Z,13.32
2023-05-23T18:57:49.319Z,14.63
2023-05-23T19:00:16.877Z,13.20
2023-05-23T19:02:46.197Z,11.15
2023-05-23T19:05:13.648Z,14.77
2023-05-23T19:07:40.997Z,13.55
2023-05-23T19:10:08.807Z,12.52
2023-05-23T19:12:36.246Z,13.57
2023-05-23T19:15:04.256Z,17.08
2023-05-23T19:17:31.622Z,17.90
2023-05-23T19:20:00.302Z,13.57
2023-05-23T19:22:31.458Z,13.40
2023-05-23T19:25:04.421Z,13.57
2023-05-23T19:27:31.756Z,12.60
2023-05-23T19:29:59.124Z,11.30
2023-05-23T19:32:26.507Z,9.88
2023-05-23T19:34:54.966Z,12.40
2023-05-23T19:37:23.727Z,16.42
2023-05-23T19:39:51.082Z,13.85
2023-05-23T19:42:18.641Z,11.90
2023-05-23T19:44:46.043Z,20.70
2023-05-23T19:47:13.407Z,18.83
2023-05-23T19:49:41.421Z,13.57
2023-05-23T19:52:08.747Z,13.20
2023-05-23T19:54:37.532Z,16.15
2023-05-23T19:57:05.268Z,13.05
2023-05-23T19:59:32.595Z,12.55
2023-05-23T20:02:00.082Z,17.80
2023-05-23T20:04:28.300Z,15.15
2023-05-23T20:06:55.755Z,8.60
2023-05-23T20:09:23.114Z,11.85
2023-05-23T20:11:51.913Z,11.98
2023-05-23T20:14:19.233Z,12.20
2023-05-23T20:16:46.583Z,11.60
2023-05-23T20:19:14.073Z,16.88
2023-05-23T20:21:41.407Z,12.98
2023-05-23T20:24:08.838Z,14.73
2023-05-23T20:26:36.170Z,13.10
2023-05-23T20:29:04.989Z,11.35
2023-05-23T20:31:32.372Z,13.13
2023-05-23T20:33:59.805Z,15.73
2023-05-23T20:36:27.222Z,20.00
2023-05-23T20:38:58.066Z,18.63
2023-05-23T20:41:25.448Z,14.45
2023-05-23T20:43:52.759Z,13.32
2023-05-23T20:46:22.007Z,19.17
2023-05-23T20:48:49.386Z,11.68
2023-05-23T20:51:16.831Z,18.75
2023-05-23T20:53:44.158Z,10.38
2023-05-23T20:56:11.502Z,18.27
2023-05-23T20:58:38.843Z,13.60
2023-05-23T21:01:06.256Z,13.85
2023-05-23T21:03:34.996Z,8.82
2023-05-23T21:06:02.383Z,14.43
2023-05-23T21:08:30.278Z,12.32
2023-05-23T21:10:59.044Z,12.13
2023-05-23T21:13:26.396Z,15.63
2023-05-23T21:15:53.706Z,11.95
2023-05-23T21:18:22.326Z,12.30
2023-05-23T21:20:52.633Z,14.45
2023-05-23T21:23:20.016Z,18.15
2023-05-23T21:25:47.365Z,13.23
2023-05-23T21:28:14.770Z,11.85
2023-05-23T21:30:42.769Z,11.23
2023-05-23T21:33:10.379Z,12.63
2023-05-23T21:35:38.131Z,12.73
2023-05-23T21:38:06.784Z,17.98
2023-05-23T21:40:34.108Z,16.77
2023-05-23T21:43:01.437Z,16.38
2023-05-23T21:45:28.826Z,11.07
2023-05-23T21:47:56.191Z,18.63
2023-05-23T21:50:23.590Z,10.63
2023-05-23T21:52:50.915Z,13.73
2023-05-23T21:55:19.604Z,13.73
2023-05-23T21:57:46.935Z,11.30
2023-05-23T22:00:14.984Z,14.27
2023-05-23T22:02:44.289Z,13.70
2023-05-23T22:05:12.966Z,13.38
2023-05-23T22:07:40.309Z,15.80
2023-05-23T22:10:08.352Z,12.45
2023-05-23T22:12:37.115Z,20.73
2023-05-23T22:15:04.677Z,20.73
2023-05-23T22:17:34.014Z,11.50
2023-05-23T22:20:02.289Z,14.70
2023-05-23T22:22:29.614Z,14.82
2023-05-23T22:24:56.947Z,15.52
2023-05-23T22:27:24.383Z,22.75
2023-05-23T22:29:53.190Z,14.23
2023-05-23T22:32:20.553Z,14.15
2023-05-23T22:34:47.888Z,13.20
2023-05-23T22:37:16.772Z,13.88
2023-05-23T22:39:44.121Z,16.50
2023-05-23T22:42:11.475Z,18.13
2023-05-23T22:44:38.775Z,28.98
2023-05-23T22:47:10.064Z,14.27
2023-05-23T22:49:37.477Z,11.02
2023-05-23T22:52:05.052Z,14.48
2023-05-23T22:54:32.375Z,14.68
2023-05-23T22:56:59.734Z,16.05
2023-05-23T22:59:27.060Z,13.45
2023-05-23T23:01:54.423Z,14.70
2023-05-23T23:04:23.513Z,13.88
2023-05-23T23:06:53.509Z,17.13
2023-05-23T23:09:21.105Z,13.27
2023-05-23T23:11:48.442Z,11.93
2023-05-23T23:14:15.836Z,13.60
2023-05-23T23:16:46.155Z,21.38
2023-05-23T23:19:13.774Z,19.10
2023-05-23T23:21:42.485Z,9.38
2023-05-23T23:24:10.905Z,14.48
2023-05-23T23:26:38.305Z,19.50
2023-05-23T23:29:05.657Z,16.48
2023-05-23T23:31:33.093Z,16.52
2023-05-23T23:34:00.491Z,11.90
2023-05-23T23:36:27.838Z,15.50
2023-05-23T23:38:56.510Z,12.02
2023-05-23T23:41:23.886Z,11.95
2023-05-23T23:43:51.262Z,19.40
2023-05-23T23:46:18.697Z,18.10
2023-05-23T23:48:46.145Z,17.02
2023-05-23T23:51:13.793Z,20.77
2023-05-23T23:53:41.210Z,13.68
2023-05-23T23:56:09.900Z,16.10
2023-05-23T23:58:37.261Z,19.77
